Time;durP1;ratioP1;P1;durP2;ratioP2;P2;SDS_P1;SDS_P2;PMS_P1;PMS_P2;Temp;Humidity;BMP_temperature;BMP_pressure;BME280_temperature;BME280_humidity;BME280_pressure;Samples;Min_cycle;Max_cycle;Signal;HPM_P1;HPM_P2
2023/10/03 00:01:37;;;;;;;;;;;17.00;99.90;;;;;;5082336;28;19924;-75
2023/10/03 00:04:03;;;;;;;;;;;17.00;99.90;;;;;;5081036;28;19973;-75
2023/10/03 00:06:29;;;;;;;;;;;17.00;99.90;;;;;;5079599;28;19964;-77
2023/10/03 00:08:55;;;;;;;;;;;17.00;99.90;;;;;;5078675;28;19976;-75
2023/10/03 00:11:22;;;;;;;;;;;17.00;99.90;;;;;;5081841;28;20309;-75
2023/10/03 00:13:50;;;;;;;;;;;17.00;99.90;;;;;;5082356;28;20441;-75
2023/10/03 00:16:15;;;;;;;;;;;17.00;99.90;;;;;;5083112;28;19925;-75
2023/10/03 00:18:42;;;;;;;;;;;17.00;99.90;;;;;;5082497;28;19920;-75
2023/10/03 00:21:07;;;;;;;;;;;17.00;99.90;;;;;;5082740;28;19920;-75
2023/10/03 00:23:33;;;;;;;;;;;17.00;99.90;;;;;;5079603;28;19930;-75
2023/10/03 00:26:01;;;;;;;;;;;17.00;99.90;;;;;;5070552;28;19924;-75
2023/10/03 00:28:29;;;;;;;;;;;17.00;99.90;;;;;;5080902;28;19924;-75
2023/10/03 00:30:55;;;;;;;;;;;17.00;99.90;;;;;;5080954;28;19934;-75
2023/10/03 00:33:25;;;;;;;;;;;17.00;99.90;;;;;;5079844;28;20003;-75
2023/10/03 00:35:53;;;;;;;;;;;17.00;99.90;;;;;;5080885;28;19931;-75
2023/10/03 00:38:19;;;;;;;;;;;17.00;99.90;;;;;;5090681;28;19924;-75
2023/10/03 00:40:53;;;;;;;;;;;17.00;99.90;;;;;;5085877;28;19939;-75
2023/10/03 00:43:19;;;;;;;;;;;17.00;99.90;;;;;;5079599;28;20030;-75
2023/10/03 00:45:45;;;;;;;;;;;17.00;99.90;;;;;;5078865;28;20023;-75
2023/10/03 00:48:11;;;;;;;;;;;17.00;99.90;;;;;;5079086;28;20363;-75
2023/10/03 00:50:38;;;;;;;;;;;17.00;99.90;;;;;;5077309;28;19927;-75
2023/10/03 00:53:06;;;;;;;;;;;17.00;99.90;;;;;;5072382;28;20027;-75
2023/10/03 00:55:32;;;;;;;;;;;17.00;99.90;;;;;;5084874;28;19931;-75
2023/10/03 01:00:43;;;;;;;;;;;17.00;99.90;;;;;;5079410;28;19981;-77
2023/10/03 01:03:28;;;;;;;;;;;17.00;99.90;;;;;;5081888;28;19967;-76
2023/10/03 01:05:58;;;;;;;;;;;16.90;99.90;;;;;;5081506;28;19959;-76
2023/10/03 01:08:24;;;;;;;;;;;17.00;99.90;;;;;;5071215;28;19920;-75
2023/10/03 01:10:51;;;;;;;;;;;16.90;99.90;;;;;;5077991;28;20309;-75
2023/10/03 01:13:19;;;;;;;;;;;16.90;99.90;;;;;;5080351;28;19993;-75
2023/10/03 01:15:49;;;;;;;;;;;16.90;99.90;;;;;;5081595;28;19932;-75
2023/10/03 01:18:17;;;;;;;;;;;16.90;99.90;;;;;;5081227;28;19926;-75
2023/10/03 01:20:48;;;;;;;;;;;16.90;99.90;;;;;;5085893;28;20701;-75
2023/10/03 01:23:15;;;;;;;;;;;16.80;99.90;;;;;;5078776;28;20371;-75
2023/10/03 01:25:44;;;;;;;;;;;16.80;99.90;;;;;;5085455;28;19950;-75
2023/10/03 01:28:10;;;;;;;;;;;16.80;99.90;;;;;;5076265;28;19920;-75
2023/10/03 01:30:37;;;;;;;;;;;16.80;99.90;;;;;;5079613;28;20117;-75
2023/10/03 01:33:03;;;;;;;;;;;16.70;99.90;;;;;;5078145;28;19935;-75
2023/10/03 01:35:29;;;;;;;;;;;16.70;99.90;;;;;;5077361;28;19972;-75
2023/10/03 01:37:54;;;;;;;;;;;16.70;99.90;;;;;;5078459;28;19924;-75
2023/10/03 01:40:20;;;;;;;;;;;16.60;99.90;;;;;;5084712;28;19924;-75
2023/10/03 01:42:46;;;;;;;;;;;16.60;99.90;;;;;;5079561;28;19924;-75
2023/10/03 01:45:13;;;;;;;;;;;16.60;99.90;;;;;;5078447;28;19920;-75
2023/10/03 01:47:40;;;;;;;;;;;16.50;99.90;;;;;;5080144;28;20023;-75
2023/10/03 01:50:06;;;;;;;;;;;16.50;99.90;;;;;;5074747;28;20568;-75
2023/10/03 01:52:32;;;;;;;;;;;16.50;99.90;;;;;;5073381;28;20058;-75
2023/10/03 01:54:58;;;;;;;;;;;16.50;99.90;;;;;;5090365;28;19924;-75
2023/10/03 01:57:24;;;;;;;;;;;16.50;99.90;;;;;;5082686;28;19927;-75
2023/10/03 01:59:50;;;;;;;;;;;16.50;99.90;;;;;;5081765;28;20380;-75
2023/10/03 02:02:15;;;;;;;;;;;16.50;99.90;;;;;;5085172;28;20316;-74
2023/10/03 02:04:41;;;;;;;;;;;16.40;99.90;;;;;;5084545;28;19924;-75
2023/10/03 02:07:07;;;;;;;;;;;16.40;99.90;;;;;;5083224;28;19935;-75
2023/10/03 02:09:32;;;;;;;;;;;16.40;99.90;;;;;;5082321;28;19920;-75
2023/10/03 02:11:59;;;;;;;;;;;16.40;99.90;;;;;;5081182;28;19936;-76
2023/10/03 02:14:28;;;;;;;;;;;16.40;99.90;;;;;;5084598;28;19928;-75
2023/10/03 02:16:54;;;;;;;;;;;16.40;99.90;;;;;;5084896;28;20014;-76
2023/10/03 02:19:20;;;;;;;;;;;16.40;99.90;;;;;;5083922;28;19927;-76
2023/10/03 02:21:46;;;;;;;;;;;16.30;99.90;;;;;;5081845;28;19930;-76
2023/10/03 02:24:13;;;;;;;;;;;16.30;99.90;;;;;;5081010;28;20745;-75
2023/10/03 02:26:41;;;;;;;;;;;16.30;99.90;;;;;;5068052;28;19927;-76
2023/10/03 02:29:06;;;;;;;;;;;16.40;99.90;;;;;;5084641;28;19931;-74
2023/10/03 02:31:33;;;;;;;;;;;16.40;99.90;;;;;;5084703;28;20363;-74
2023/10/03 02:34:01;;;;;;;;;;;16.50;99.90;;;;;;5084248;28;19924;-75
2023/10/03 02:36:26;;;;;;;;;;;16.60;99.90;;;;;;5083611;28;20374;-75
2023/10/03 02:38:52;;;;;;;;;;;16.70;99.90;;;;;;5082586;28;20035;-74
2023/10/03 02:41:19;;;;;;;;;;;16.70;99.90;;;;;;5087201;28;19927;-76
2023/10/03 02:43:47;;;;;;;;;;;16.70;99.90;;;;;;5083416;28;19935;-75
2023/10/03 02:46:12;;;;;;;;;;;16.80;99.90;;;;;;5080670;28;19963;-75
2023/10/03 02:48:38;;;;;;;;;;;16.80;99.90;;;;;;5080787;28;19971;-75
2023/10/03 02:51:05;;;;;;;;;;;16.90;99.90;;;;;;5083780;28;19932;-75
2023/10/03 02:53:31;;;;;;;;;;;17.00;99.90;;;;;;5081759;28;19920;-75
2023/10/03 02:55:58;;;;;;;;;;;17.10;99.90;;;;;;5081286;28;20594;-75
2023/10/03 02:58:23;;;;;;;;;;;17.20;99.90;;;;;;5080924;28;19924;-76
2023/10/03 03:00:53;;;;;;;;;;;17.20;99.90;;;;;;5080844;28;19930;-76
2023/10/03 03:03:19;;;;;;;;;;;17.30;99.90;;;;;;5079215;28;19921;-76
2023/10/03 03:05:44;;;;;;;;;;;17.30;99.90;;;;;;5088041;28;19982;-75
2023/10/03 03:08:22;;;;;;;;;;;17.40;99.90;;;;;;5082475;28;19924;-75
2023/10/03 03:10:55;;;;;;;;;;;17.40;99.90;;;;;;5083203;28;20298;-75
2023/10/03 03:13:27;;;;;;;;;;;17.40;99.90;;;;;;5081232;28;19977;-75
2023/10/03 03:15:59;;;;;;;;;;;17.40;99.90;;;;;;5081163;28;20043;-76
2023/10/03 03:18:25;;;;;;;;;;;17.50;99.90;;;;;;5083052;28;19924;-76
2023/10/03 03:21:02;;;;;;;;;;;17.50;99.90;;;;;;5082678;28;19934;-76
2023/10/03 03:23:31;;;;;;;;;;;17.50;99.90;;;;;;5081906;28;20381;-77
2023/10/03 03:26:18;;;;;;;;;;;17.60;99.90;;;;;;5072809;28;19924;-75
2023/10/03 03:28:49;;;;;;;;;;;17.60;99.90;;;;;;5082904;28;19920;-75
2023/10/03 03:31:22;;;;;;;;;;;17.60;99.90;;;;;;5082078;28;19963;-76
2023/10/03 03:33:51;;;;;;;;;;;17.60;99.90;;;;;;5072323;28;19943;-75
2023/10/03 03:36:21;;;;;;;;;;;17.60;99.90;;;;;;5077519;28;20056;-75
2023/10/03 03:38:48;;;;;;;;;;;17.60;99.90;;;;;;5080678;28;19927;-76
2023/10/03 03:41:15;;;;;;;;;;;17.60;99.90;;;;;;5081649;28;20062;-76
2023/10/03 03:43:42;;;;;;;;;;;17.60;99.90;;;;;;5080306;28;19931;-76
2023/10/03 03:46:08;;;;;;;;;;;17.60;99.90;;;;;;5074830;28;20390;-76
2023/10/03 03:48:34;;;;;;;;;;;17.60;99.90;;;;;;5071876;28;19930;-75
2023/10/03 03:51:06;;;;;;;;;;;17.60;99.90;;;;;;5082290;28;19925;-76
2023/10/03 03:53:33;;;;;;;;;;;17.50;99.90;;;;;;5080365;28;19920;-76
2023/10/03 03:56:04;;;;;;;;;;;17.50;99.90;;;;;;5080330;28;19927;-76
2023/10/03 03:58:31;;;;;;;;;;;17.60;99.90;;;;;;5080398;28;19924;-75
2023/10/03 04:00:58;;;;;;;;;;;17.60;99.90;;;;;;5080813;28;20009;-75
2023/10/03 04:03:24;;;;;;;;;;;17.70;99.90;;;;;;5081534;28;19920;-75
2023/10/03 04:05:50;;;;;;;;;;;17.70;99.90;;;;;;5082459;28;19931;-75
2023/10/03 04:08:16;;;;;;;;;;;17.70;99.90;;;;;;5082903;28;20013;-75
2023/10/03 04:10:45;;;;;;;;;;;17.70;99.90;;;;;;5082734;28;19967;-75
2023/10/03 04:13:14;;;;;;;;;;;17.70;99.90;;;;;;5080936;28;19923;-75
2023/10/03 04:15:40;;;;;;;;;;;17.60;99.90;;;;;;5079352;28;20747;-75
2023/10/03 04:18:09;;;;;;;;;;;17.60;99.90;;;;;;5079218;28;19925;-75
2023/10/03 04:20:35;;;;;;;;;;;17.60;99.90;;;;;;5072124;28;20359;-75
2023/10/03 04:23:05;;;;;;;;;;;17.60;99.90;;;;;;5079722;28;20047;-75
2023/10/03 04:25:33;;;;;;;;;;;17.60;99.90;;;;;;5087330;28;19924;-75
2023/10/03 04:27:59;;;;;;;;;;;17.60;99.90;;;;;;5076211;28;19992;-75
2023/10/03 04:30:27;;;;;;;;;;;17.60;99.90;;;;;;5081874;28;20868;-75
2023/10/03 04:32:54;;;;;;;;;;;17.60;99.90;;;;;;5080141;28;19920;-75
2023/10/03 04:35:20;;;;;;;;;;;17.60;99.90;;;;;;5081179;28;19927;-75
2023/10/03 04:37:46;;;;;;;;;;;17.70;99.90;;;;;;5082364;28;20283;-76
2023/10/03 04:40:15;;;;;;;;;;;17.60;99.90;;;;;;5078200;28;19972;-75
2023/10/03 04:42:41;;;;;;;;;;;17.70;99.90;;;;;;5080731;28;19943;-75
2023/10/03 04:45:10;;;;;;;;;;;17.70;99.90;;;;;;5081301;28;19935;-75
2023/10/03 04:47:37;;;;;;;;;;;17.80;99.90;;;;;;5072429;28;19924;-75
2023/10/03 04:50:10;;;;;;;;;;;17.90;99.90;;;;;;5083737;28;19973;-75
2023/10/03 04:52:37;;;;;;;;;;;17.90;99.90;;;;;;5079444;28;20260;-76
2023/10/03 04:55:03;;;;;;;;;;;18.10;99.90;;;;;;5087731;28;20367;-76
2023/10/03 04:57:28;;;;;;;;;;;18.20;99.90;;;;;;5079820;28;19928;-75
2023/10/03 04:59:59;;;;;;;;;;;18.30;99.90;;;;;;5081049;28;20322;-75
2023/10/03 05:02:28;;;;;;;;;;;18.30;99.90;;;;;;5080465;28;20014;-76
2023/10/03 05:04:54;;;;;;;;;;;18.40;99.90;;;;;;5079472;28;19919;-76
2023/10/03 05:07:20;;;;;;;;;;;18.40;99.90;;;;;;5080693;28;19982;-75
2023/10/03 05:09:45;;;;;;;;;;;18.50;99.90;;;;;;5080281;28;20381;-75
2023/10/03 05:12:12;;;;;;;;;;;18.60;99.90;;;;;;5082836;28;19924;-76
2023/10/03 05:14:40;;;;;;;;;;;18.60;99.90;;;;;;5086867;28;19967;-76
2023/10/03 05:17:06;;;;;;;;;;;18.60;99.90;;;;;;5081816;28;19920;-76
2023/10/03 05:19:32;;;;;;;;;;;18.70;99.90;;;;;;5082210;28;20382;-76
2023/10/03 05:21:58;;;;;;;;;;;18.70;99.90;;;;;;5064049;28;20037;-76
2023/10/03 05:24:24;;;;;;;;;;;18.70;99.90;;;;;;5069632;28;19932;-76
2023/10/03 05:26:51;;;;;;;;;;;18.70;99.90;;;;;;5083680;28;19972;-77
2023/10/03 05:29:17;;;;;;;;;;;18.70;99.90;;;;;;5083626;28;19927;-76
2023/10/03 05:31:44;;;;;;;;;;;18.70;99.90;;;;;;5082958;28;19924;-76
2023/10/03 05:34:10;;;;;;;;;;;18.70;99.90;;;;;;5083686;28;19925;-76
2023/10/03 05:36:35;;;;;;;;;;;18.80;99.90;;;;;;5081689;28;19943;-76
2023/10/03 05:39:01;;;;;;;;;;;18.80;99.90;;;;;;5082944;28;20621;-75
2023/10/03 05:41:27;;;;;;;;;;;18.90;99.90;;;;;;5084184;28;19928;-74
2023/10/03 05:43:52;;;;;;;;;;;18.90;99.90;;;;;;5085581;28;19931;-74
2023/10/03 05:46:18;;;;;;;;;;;19.00;99.90;;;;;;5079656;28;20398;-74
2023/10/03 05:48:44;;;;;;;;;;;19.00;99.90;;;;;;5084884;28;19939;-75
2023/10/03 05:51:09;;;;;;;;;;;19.00;99.90;;;;;;5081383;28;19924;-74
2023/10/03 05:53:35;;;;;;;;;;;19.10;99.90;;;;;;5062172;28;20065;-75
2023/10/03 05:56:01;;;;;;;;;;;19.10;99.90;;;;;;5083997;28;19927;-75
2023/10/03 05:58:27;;;;;;;;;;;19.10;99.90;;;;;;5084116;28;20710;-75
2023/10/03 06:00:52;;;;;;;;;;;19.10;99.90;;;;;;5076224;28;19935;-75
2023/10/03 06:03:18;;;;;;;;;;;19.10;99.90;;;;;;5083782;28;19924;-74
2023/10/03 06:05:45;;;;;;;;;;;19.20;99.90;;;;;;5076685;28;20378;-74
2023/10/03 06:08:12;;;;;;;;;;;19.20;99.90;;;;;;5083589;28;19924;-74
2023/10/03 06:10:38;;;;;;;;;;;19.10;99.90;;;;;;5083512;28;20261;-75
2023/10/03 06:13:05;;;;;;;;;;;19.20;99.90;;;;;;5084405;28;19928;-74
2023/10/03 06:15:36;;;;;;;;;;;19.20;99.90;;;;;;5081105;28;19924;-74
2023/10/03 06:18:02;;;;;;;;;;;19.20;99.90;;;;;;5080687;28;19946;-74
2023/10/03 06:20:27;;;;;;;;;;;19.30;99.90;;;;;;5081590;28;19920;-74
2023/10/03 06:22:54;;;;;;;;;;;19.20;99.90;;;;;;5081947;28;19946;-74
2023/10/03 06:25:19;;;;;;;;;;;19.30;99.90;;;;;;5067959;28;20137;-75
2023/10/03 06:27:45;;;;;;;;;;;19.30;99.90;;;;;;5082057;28;19920;-75
2023/10/03 06:30:11;;;;;;;;;;;19.30;99.90;;;;;;5081297;28;20347;-74
2023/10/03 06:32:37;;;;;;;;;;;19.30;99.90;;;;;;5077183;28;19925;-75
2023/10/03 06:35:04;;;;;;;;;;;19.20;99.90;;;;;;5083856;28;19966;-75
2023/10/03 06:37:30;;;;;;;;;;;19.30;99.90;;;;;;5080606;28;19931;-75
2023/10/03 06:39:56;;;;;;;;;;;19.30;99.90;;;;;;5087256;28;19920;-75
2023/10/03 06:42:23;;;;;;;;;;;19.30;99.90;;;;;;5084100;28;19931;-75
2023/10/03 06:44:49;;;;;;;;;;;19.30;99.90;;;;;;5079714;28;19931;-75
2023/10/03 06:47:15;;;;;;;;;;;19.20;99.90;;;;;;5071279;28;19924;-76
2023/10/03 06:49:40;;;;;;;;;;;19.10;99.90;;;;;;5083928;28;20018;-75
2023/10/03 06:52:06;;;;;;;;;;;19.10;99.90;;;;;;5081372;28;19990;-75
2023/10/03 06:54:31;;;;;;;;;;;19.00;99.90;;;;;;5085860;28;19952;-76
2023/10/03 06:56:57;;;;;;;;;;;18.90;99.90;;;;;;5081464;28;19946;-75
2023/10/03 06:59:23;;;;;;;;;;;18.70;99.90;;;;;;5080680;28;19924;-75
2023/10/03 07:01:48;;;;;;;;;;;18.70;99.90;;;;;;5083449;28;19924;-75
2023/10/03 07:04:14;;;;;;;;;;;18.60;99.90;;;;;;5084550;28;19920;-74
2023/10/03 07:06:39;;;;;;;;;;;18.50;99.90;;;;;;5082699;28;19924;-74
2023/10/03 07:09:08;;;;;;;;;;;18.50;99.90;;;;;;5080803;28;19925;-75
2023/10/03 07:11:34;;;;;;;;;;;18.40;99.90;;;;;;5077821;28;19931;-75
2023/10/03 07:13:59;;;;;;;;;;;18.30;99.90;;;;;;5081537;28;19924;-76
2023/10/03 07:16:25;;;;;;;;;;;18.30;99.90;;;;;;5079619;28;20030;-75
2023/10/03 07:18:50;;;;;;;;;;;18.20;99.90;;;;;;5088875;28;20427;-76
2023/10/03 07:21:16;;;;;;;;;;;18.20;99.90;;;;;;5080586;28;20014;-75
2023/10/03 07:23:45;;;;;;;;;;;18.10;99.90;;;;;;5080230;28;19920;-75
2023/10/03 07:26:11;;;;;;;;;;;18.10;99.90;;;;;;5072953;28;19971;-75
2023/10/03 07:28:38;;;;;;;;;;;18.10;99.90;;;;;;5084300;28;19979;-76
2023/10/03 07:31:12;;;;;;;;;;;18.10;99.90;;;;;;5083457;28;19920;-75
2023/10/03 07:33:39;;;;;;;;;;;18.10;99.90;;;;;;5071746;28;19955;-76
2023/10/03 07:36:06;;;;;;;;;;;18.00;99.90;;;;;;5080441;28;19928;-76
2023/10/03 07:38:31;;;;;;;;;;;18.10;99.90;;;;;;5090551;28;20644;-75
2023/10/03 07:40:57;;;;;;;;;;;18.00;99.90;;;;;;5084178;28;19924;-76
2023/10/03 07:43:24;;;;;;;;;;;18.00;99.90;;;;;;5088426;28;19956;-75
2023/10/03 07:45:50;;;;;;;;;;;17.90;99.90;;;;;;5079422;28;19924;-75
2023/10/03 07:48:15;;;;;;;;;;;17.80;99.90;;;;;;5094141;28;19924;-76
2023/10/03 07:50:43;;;;;;;;;;;17.80;99.90;;;;;;5077485;28;19923;-75
2023/10/03 07:53:11;;;;;;;;;;;17.70;99.90;;;;;;5083331;28;19920;-76
2023/10/03 07:55:39;;;;;;;;;;;17.70;99.90;;;;;;5080996;28;19931;-75
2023/10/03 07:58:05;;;;;;;;;;;17.60;99.90;;;;;;5080229;28;19920;-76
2023/10/03 08:00:31;;;;;;;;;;;17.60;99.90;;;;;;5079490;28;19925;-76
2023/10/03 08:02:56;;;;;;;;;;;17.50;99.90;;;;;;5082211;28;19928;-76
2023/10/03 08:05:27;;;;;;;;;;;17.40;99.90;;;;;;5082787;28;19920;-76
2023/10/03 08:07:56;;;;;;;;;;;17.40;99.90;;;;;;5080645;28;19928;-76
2023/10/03 08:10:24;;;;;;;;;;;17.30;99.90;;;;;;5079610;28;20340;-75
2023/10/03 08:12:52;;;;;;;;;;;17.20;99.90;;;;;;5077811;28;19959;-76
2023/10/03 08:15:19;;;;;;;;;;;17.20;99.90;;;;;;5079755;28;19950;-76
2023/10/03 08:17:49;;;;;;;;;;;17.00;99.90;;;;;;5079231;28;19931;-76
2023/10/03 08:20:16;;;;;;;;;;;17.00;99.90;;;;;;5079787;28;19921;-76
2023/10/03 08:22:42;;;;;;;;;;;16.80;99.90;;;;;;5074131;28;19924;-75
2023/10/03 08:25:09;;;;;;;;;;;16.70;99.90;;;;;;5081136;28;19924;-75
2023/10/03 08:27:34;;;;;;;;;;;16.70;99.90;;;;;;5077421;28;20014;-76
2023/10/03 08:30:03;;;;;;;;;;;16.70;99.90;;;;;;5083142;28;20002;-76
2023/10/03 08:32:31;;;;;;;;;;;16.70;99.90;;;;;;5070660;28;19924;-75
2023/10/03 08:34:57;;;;;;;;;;;16.70;99.90;;;;;;5078778;28;20450;-75
2023/10/03 08:37:22;;;;;;;;;;;16.70;99.90;;;;;;5077987;28;20006;-75
2023/10/03 08:39:49;;;;;;;;;;;16.70;99.90;;;;;;5083121;28;19953;-75
2023/10/03 08:42:18;;;;;;;;;;;16.80;99.90;;;;;;5082368;28;19945;-75
2023/10/03 08:44:49;;;;;;;;;;;16.80;99.90;;;;;;5078873;28;20174;-75
2023/10/03 08:47:18;;;;;;;;;;;17.00;99.90;;;;;;5082446;28;19920;-76
2023/10/03 08:49:44;;;;;;;;;;;17.00;99.90;;;;;;5078168;28;20042;-76
2023/10/03 08:52:11;;;;;;;;;;;17.00;99.90;;;;;;5082121;28;19920;-76
2023/10/03 08:54:37;;;;;;;;;;;16.90;99.90;;;;;;5075456;28;20000;-76
2023/10/03 08:57:04;;;;;;;;;;;16.70;99.90;;;;;;5082206;28;19924;-76
2023/10/03 08:59:30;;;;;;;;;;;16.60;99.90;;;;;;5081217;28;20586;-75
2023/10/03 09:01:58;;;;;;;;;;;16.40;99.90;;;;;;5077991;28;19926;-75
2023/10/03 09:04:24;;;;;;;;;;;16.20;99.90;;;;;;5078969;28;19931;-75
2023/10/03 09:06:50;;;;;;;;;;;16.00;99.90;;;;;;5078533;28;19932;-75
2023/10/03 09:09:16;;;;;;;;;;;15.80;99.90;;;;;;5079061;28;19927;-76
2023/10/03 09:11:43;;;;;;;;;;;15.70;99.90;;;;;;5078069;28;19924;-75
2023/10/03 09:14:12;;;;;;;;;;;15.60;99.90;;;;;;5069412;28;19939;-76
2023/10/03 09:16:40;;;;;;;;;;;15.50;99.90;;;;;;5078028;28;19920;-75
2023/10/03 09:19:09;;;;;;;;;;;15.50;99.90;;;;;;5078726;28;20260;-75
2023/10/03 09:21:35;;;;;;;;;;;15.50;99.90;;;;;;5079745;28;19924;-76
2023/10/03 09:24:09;;;;;;;;;;;15.60;99.90;;;;;;5088989;28;19924;-75
2023/10/03 09:26:47;;;;;;;;;;;15.70;99.90;;;;;;5073982;28;19930;-75
2023/10/03 09:29:18;;;;;;;;;;;15.70;99.90;;;;;;5080144;28;20481;-74
2023/10/03 09:31:44;;;;;;;;;;;15.70;99.90;;;;;;5078116;28;19931;-75
2023/10/03 09:34:13;;;;;;;;;;;15.70;99.90;;;;;;5076713;28;20400;-76
2023/10/03 09:36:40;;;;;;;;;;;15.80;99.90;;;;;;5078247;28;20389;-76
2023/10/03 09:39:20;;;;;;;;;;;15.70;99.90;;;;;;5081439;28;19924;-76
2023/10/03 09:41:54;;;;;;;;;;;15.70;99.90;;;;;;5071334;28;19924;-75
2023/10/03 09:44:32;;;;;;;;;;;15.60;99.90;;;;;;5087207;28;19971;-76
2023/10/03 09:47:04;;;;;;;;;;;15.60;99.90;;;;;;5076399;28;20381;-76
2023/10/03 09:49:36;;;;;;;;;;;15.40;99.90;;;;;;5082698;28;20378;-76
2023/10/03 09:52:24;;;;;;;;;;;15.30;99.90;;;;;;5078600;28;20026;-75
2023/10/03 09:54:53;;;;;;;;;;;15.10;99.90;;;;;;5060024;28;19927;-76
2023/10/03 09:57:21;;;;;;;;;;;15.00;99.90;;;;;;5076995;28;19930;-76
2023/10/03 09:59:48;;;;;;;;;;;14.90;99.90;;;;;;5079193;28;19928;-76
2023/10/03 10:02:14;;;;;;;;;;;14.90;99.90;;;;;;5084758;28;19949;-76
2023/10/03 10:04:41;;;;;;;;;;;15.00;99.90;;;;;;5081592;28;19927;-76
2023/10/03 10:07:17;;;;;;;;;;;14.90;99.90;;;;;;5082099;28;20173;-76
2023/10/03 10:10:07;;;;;;;;;;;15.00;99.90;;;;;;5072872;28;19926;-76
2023/10/03 10:12:37;;;;;;;;;;;15.00;99.90;;;;;;5082376;28;20758;-76
2023/10/03 10:17:55;;;;;;;;;;;14.90;99.90;;;;;;5086665;28;19935;-76
2023/10/03 10:20:32;;;;;;;;;;;14.80;99.90;;;;;;5074893;28;19920;-76
2023/10/03 10:23:02;;;;;;;;;;;14.70;99.90;;;;;;5082261;28;19927;-76
2023/10/03 10:25:28;;;;;;;;;;;14.70;99.90;;;;;;5080374;28;20627;-76
2023/10/03 10:28:07;;;;;;;;;;;14.70;99.90;;;;;;5080760;28;19924;-76
2023/10/03 10:30:33;;;;;;;;;;;14.70;99.90;;;;;;5074616;28;19924;-75
2023/10/03 10:33:23;;;;;;;;;;;14.70;99.90;;;;;;5073115;28;19924;-76
2023/10/03 10:35:49;;;;;;;;;;;14.70;99.90;;;;;;5075989;28;19931;-76
2023/10/03 10:38:15;;;;;;;;;;;14.80;99.90;;;;;;5082673;28;19924;-76
2023/10/03 10:41:00;;;;;;;;;;;14.80;99.90;;;;;;5087832;28;19924;-75
2023/10/03 10:43:25;;;;;;;;;;;14.90;99.90;;;;;;5082049;28;20431;-77
2023/10/03 10:46:11;;;;;;;;;;;15.00;99.90;;;;;;5078872;28;19924;-76
2023/10/03 10:48:39;;;;;;;;;;;15.00;99.90;;;;;;5081632;28;19959;-75
2023/10/03 10:51:07;;;;;;;;;;;15.00;99.90;;;;;;5080677;28;20405;-76
2023/10/03 10:53:46;;;;;;;;;;;15.10;99.90;;;;;;5083227;28;20055;-76
2023/10/03 10:56:13;;;;;;;;;;;15.20;99.90;;;;;;5076484;28;20430;-76
2023/10/03 10:58:53;;;;;;;;;;;15.20;99.90;;;;;;5083418;28;19924;-77
2023/10/03 11:01:22;;;;;;;;;;;15.30;99.90;;;;;;5087556;28;20045;-76
2023/10/03 11:03:48;;;;;;;;;;;15.20;99.90;;;;;;5079383;28;19935;-76
2023/10/03 11:06:15;;;;;;;;;;;15.20;99.90;;;;;;5081479;28;19932;-76
2023/10/03 11:08:47;;;;;;;;;;;15.20;99.90;;;;;;5081107;28;19974;-76
2023/10/03 11:11:13;;;;;;;;;;;15.10;99.90;;;;;;5082189;28;19951;-76
2023/10/03 11:13:57;;;;;;;;;;;15.20;99.90;;;;;;5081239;28;19956;-75
2023/10/03 11:16:24;;;;;;;;;;;15.20;99.90;;;;;;5089523;28;19934;-75
2023/10/03 11:18:50;;;;;;;;;;;15.30;99.90;;;;;;5081497;28;19924;-75
2023/10/03 11:21:16;;;;;;;;;;;15.30;99.90;;;;;;5084329;28;20046;-75
2023/10/03 11:24:03;;;;;;;;;;;15.40;99.90;;;;;;5082584;28;19930;-76
2023/10/03 11:26:40;;;;;;;;;;;15.40;99.90;;;;;;5073760;28;20463;-75
2023/10/03 11:29:05;;;;;;;;;;;15.30;99.90;;;;;;5082369;28;19999;-75
2023/10/03 11:31:36;;;;;;;;;;;15.30;99.90;;;;;;5080580;28;19927;-76
2023/10/03 11:34:01;;;;;;;;;;;15.30;99.90;;;;;;5079870;28;20015;-76
2023/10/03 11:36:38;;;;;;;;;;;15.30;99.90;;;;;;5083387;28;20047;-75
2023/10/03 11:39:04;;;;;;;;;;;15.30;99.90;;;;;;5093062;28;19967;-75
2023/10/03 11:41:30;;;;;;;;;;;15.30;99.90;;;;;;5083440;28;19978;-74
2023/10/03 11:43:56;;;;;;;;;;;15.40;99.90;;;;;;5082980;28;20030;-75
2023/10/03 11:46:21;;;;;;;;;;;15.50;99.90;;;;;;5079241;28;20406;-75
2023/10/03 11:48:55;;;;;;;;;;;15.60;99.90;;;;;;5083667;28;19927;-75
2023/10/03 11:51:21;;;;;;;;;;;15.70;99.90;;;;;;5080404;28;19925;-75
2023/10/03 11:53:46;;;;;;;;;;;15.70;99.90;;;;;;5082694;28;19934;-75
2023/10/03 11:56:12;;;;;;;;;;;15.70;99.90;;;;;;5079708;28;20382;-76
2023/10/03 11:58:38;;;;;;;;;;;15.70;99.90;;;;;;5080223;28;19920;-75
2023/10/03 12:01:03;;;;;;;;;;;15.70;99.90;;;;;;5080092;28;20390;-75
2023/10/03 12:03:30;;;;;;;;;;;15.70;99.90;;;;;;5080392;28;19924;-75
2023/10/03 12:05:57;;;;;;;;;;;15.60;99.90;;;;;;5088563;28;19928;-75
2023/10/03 12:08:23;;;;;;;;;;;15.60;99.90;;;;;;5083222;28;19949;-75
2023/10/03 12:10:49;;;;;;;;;;;15.50;99.90;;;;;;5074146;28;19932;-74
2023/10/03 12:13:15;;;;;;;;;;;15.40;99.90;;;;;;5083069;28;19942;-75
2023/10/03 12:15:45;;;;;;;;;;;15.20;99.90;;;;;;5083448;28;19923;-76
2023/10/03 12:18:15;;;;;;;;;;;15.00;99.90;;;;;;5086713;28;19975;-75
2023/10/03 12:20:41;;;;;;;;;;;14.90;99.90;;;;;;5086761;28;19920;-76
2023/10/03 12:23:07;;;;;;;;;;;14.70;99.90;;;;;;5079730;28;19928;-75
2023/10/03 12:25:33;;;;;;;;;;;14.50;99.90;;;;;;5076062;28;19930;-74
2023/10/03 12:27:58;;;;;;;;;;;14.50;99.90;;;;;;5078721;28;19927;-74
2023/10/03 12:30:25;;;;;;;;;;;14.60;99.90;;;;;;5082571;28;19920;-75
2023/10/03 12:32:51;;;;;;;;;;;14.60;99.90;;;;;;5081502;28;20384;-74
2023/10/03 12:35:17;;;;;;;;;;;14.50;99.90;;;;;;5080303;28;19924;-75
2023/10/03 12:37:44;;;;;;;;;;;14.90;99.90;;;;;;5079545;28;19946;-76
2023/10/03 12:40:13;;;;;;;;;;;15.30;99.90;;;;;;5087159;28;19920;-76
2023/10/03 12:42:41;;;;;;;;;;;15.30;99.90;;;;;;5083326;28;20573;-76
2023/10/03 12:45:07;;;;;;;;;;;15.40;99.90;;;;;;5080878;28;20051;-76
2023/10/03 12:47:35;;;;;;;;;;;15.50;99.90;;;;;;5079038;28;20342;-76
2023/10/03 12:50:01;;;;;;;;;;;15.50;99.90;;;;;;5081211;28;19920;-75
2023/10/03 12:52:30;;;;;;;;;;;15.60;99.90;;;;;;5080928;28;19951;-76
2023/10/03 12:54:56;;;;;;;;;;;15.60;99.90;;;;;;5077968;28;19921;-75
2023/10/03 12:57:22;;;;;;;;;;;15.60;99.90;;;;;;5082356;28;20053;-76
2023/10/03 12:59:49;;;;;;;;;;;15.60;99.90;;;;;;5079247;28;20440;-75
2023/10/03 13:02:17;;;;;;;;;;;15.60;99.90;;;;;;5079519;28;19924;-75
2023/10/03 13:04:47;;;;;;;;;;;15.60;99.90;;;;;;5081474;28;20375;-76
2023/10/03 13:07:14;;;;;;;;;;;15.70;99.90;;;;;;5083011;28;19924;-75
2023/10/03 13:09:44;;;;;;;;;;;15.70;99.90;;;;;;5079297;28;19952;-76
2023/10/03 13:12:10;;;;;;;;;;;15.80;99.90;;;;;;5081854;28;19956;-76
2023/10/03 13:14:35;;;;;;;;;;;15.90;99.90;;;;;;5082224;28;19928;-76
2023/10/03 13:17:01;;;;;;;;;;;16.00;99.90;;;;;;5078407;28;19926;-76
2023/10/03 13:19:30;;;;;;;;;;;16.20;99.90;;;;;;5078761;28;19931;-76
2023/10/03 13:21:57;;;;;;;;;;;16.40;99.90;;;;;;5069704;28;19931;-75
2023/10/03 13:24:24;;;;;;;;;;;16.60;99.90;;;;;;5079371;28;19986;-75
2023/10/03 13:26:53;;;;;;;;;;;16.70;99.90;;;;;;5082104;28;19923;-75
2023/10/03 13:29:19;;;;;;;;;;;16.70;99.90;;;;;;5080027;28;19928;-75
2023/10/03 13:31:45;;;;;;;;;;;16.70;99.90;;;;;;5059916;28;19976;-76
2023/10/03 13:34:11;;;;;;;;;;;16.80;99.90;;;;;;5078037;28;19962;-77
2023/10/03 13:36:37;;;;;;;;;;;16.90;99.90;;;;;;5079458;28;19960;-76
2023/10/03 13:39:05;;;;;;;;;;;16.90;99.90;;;;;;5080907;28;19978;-75
2023/10/03 13:41:31;;;;;;;;;;;16.90;99.90;;;;;;5077678;28;19931;-76
2023/10/03 13:43:57;;;;;;;;;;;16.90;99.90;;;;;;5077906;28;19928;-75
2023/10/03 13:46:22;;;;;;;;;;;17.20;99.90;;;;;;5076316;28;19964;-75
2023/10/03 13:48:51;;;;;;;;;;;16.90;99.90;;;;;;5077548;28;20374;-75
2023/10/03 13:51:16;;;;;;;;;;;17.00;99.90;;;;;;5082185;28;20397;-75
2023/10/03 13:53:43;;;;;;;;;;;17.30;99.90;;;;;;5085207;28;19975;-75
2023/10/03 13:56:09;;;;;;;;;;;17.70;99.90;;;;;;5082256;28;19970;-76
2023/10/03 13:58:36;;;;;;;;;;;18.10;99.90;;;;;;5083215;28;19986;-75
2023/10/03 14:01:03;;;;;;;;;;;18.70;99.90;;;;;;5089272;28;19920;-76
2023/10/03 14:03:31;;;;;;;;;;;18.90;99.90;;;;;;5082550;28;19924;-77
2023/10/03 14:05:58;;;;;;;;;;;18.50;99.90;;;;;;5081895;28;19989;-75
2023/10/03 14:08:24;;;;;;;;;;;18.00;99.90;;;;;;5082200;28;19932;-75
2023/10/03 14:10:49;;;;;;;;;;;17.40;99.90;;;;;;5083797;28;19977;-75
2023/10/03 14:13:16;;;;;;;;;;;17.50;99.90;;;;;;5066931;28;19946;-75
2023/10/03 14:15:43;;;;;;;;;;;18.00;99.90;;;;;;5085414;28;19924;-75
2023/10/03 14:18:09;;;;;;;;;;;18.50;99.90;;;;;;5073320;28;19990;-76
2023/10/03 14:20:36;;;;;;;;;;;19.00;99.90;;;;;;5073850;28;19939;-75
2023/10/03 14:23:02;;;;;;;;;;;19.10;99.90;;;;;;5082836;28;20015;-76
2023/10/03 14:25:30;;;;;;;;;;;19.60;99.90;;;;;;5080283;28;19931;-76